Time;durP1;ratioP1;P1;durP2;ratioP2;P2;SDS_P1;SDS_P2;PMS_P1;PMS_P2;Temp;Humidity;BMP_temperature;BMP_pressure;BME280_temperature;BME280_humidity;BME280_pressure;Samples;Min_cycle;Max_cycle;Signal;HPM_P1;HPM_P2
2022/01/09 00:00:42;;;;;;;0.93;0.55;;;6.60;99.90;;;;;;4997558;28;20432;-57
2022/01/09 00:03:08;;;;;;;0.80;0.60;;;6.40;99.90;;;;;;5004581;28;20312;-57
2022/01/09 00:05:34;;;;;;;2.00;0.63;;;6.30;99.90;;;;;;5010182;28;20187;-57
2022/01/09 00:08:00;;;;;;;0.95;0.70;;;6.60;99.90;;;;;;5006491;28;20420;-57
2022/01/09 00:10:28;;;;;;;0.70;0.53;;;6.60;99.90;;;;;;5004470;28;20214;-57
2022/01/09 00:12:54;;;;;;;0.60;0.50;;;6.40;99.90;;;;;;5009408;28;20190;-57
2022/01/09 00:15:20;;;;;;;0.67;0.50;;;6.50;99.90;;;;;;4999844;28;20192;-56
2022/01/09 00:17:45;;;;;;;0.80;0.70;;;6.50;99.90;;;;;;5005054;28;20445;-57
2022/01/09 00:20:12;;;;;;;0.70;0.60;;;6.30;99.90;;;;;;5009454;28;20213;-56
2022/01/09 00:25:09;;;;;;;0.60;0.60;;;6.50;99.90;;;;;;5008905;28;20497;-58
2022/01/09 00:27:36;;;;;;;0.73;0.60;;;6.40;99.90;;;;;;5008516;28;20768;-57
2022/01/09 00:30:06;;;;;;;0.60;0.50;;;5.90;99.90;;;;;;5007792;28;20217;-57
2022/01/09 00:32:32;;;;;;;0.60;0.55;;;6.50;99.90;;;;;;5019963;28;20689;-57
2022/01/09 00:34:58;;;;;;;1.63;0.60;;;6.40;99.90;;;;;;5008850;28;20186;-57
2022/01/09 00:37:24;;;;;;;0.80;0.60;;;6.40;99.90;;;;;;5009408;28;20427;-57
2022/01/09 00:39:49;;;;;;;0.60;0.50;;;6.40;99.90;;;;;;5007612;28;20663;-57
2022/01/09 00:42:15;;;;;;;0.60;0.50;;;6.10;99.90;;;;;;5000316;28;20186;-57
2022/01/09 00:44:40;;;;;;;0.60;0.50;;;6.40;99.90;;;;;;5008784;28;20190;-57
2022/01/09 00:47:06;;;;;;;0.70;0.70;;;6.20;99.90;;;;;;5008952;28;20230;-57
2022/01/09 00:49:31;;;;;;;0.73;0.50;;;6.20;99.90;;;;;;5013325;28;20244;-56
2022/01/09 00:51:57;;;;;;;0.80;0.60;;;6.10;99.90;;;;;;5020434;28;20228;-57
2022/01/09 00:54:24;;;;;;;1.88;0.60;;;6.10;99.90;;;;;;5013472;28;20660;-57
2022/01/09 00:56:49;;;;;;;0.97;0.70;;;5.90;99.90;;;;;;5007750;28;20186;-57
2022/01/09 00:59:15;;;;;;;0.67;0.60;;;6.00;99.90;;;;;;5015412;28;20690;-57
2022/01/09 01:01:41;;;;;;;0.50;0.40;;;6.00;99.90;;;;;;4998250;28;20190;-57
2022/01/09 01:04:06;;;;;;;0.50;0.47;;;6.00;99.90;;;;;;5007572;28;20390;-57
2022/01/09 01:06:32;;;;;;;0.60;0.50;;;6.10;99.90;;;;;;5010678;28;20186;-57
2022/01/09 01:08:58;;;;;;;1.27;0.60;;;6.10;99.90;;;;;;4998584;28;20206;-57
2022/01/09 01:11:23;;;;;;;0.70;0.50;;;6.00;99.90;;;;;;5011358;28;20210;-58
2022/01/09 01:13:49;;;;;;;0.70;0.60;;;6.10;99.90;;;;;;5005863;28;20442;-58
2022/01/09 01:16:15;;;;;;;0.50;0.40;;;6.10;99.90;;;;;;5004024;28;20187;-57
2022/01/09 01:18:44;;;;;;;0.60;0.50;;;6.10;99.90;;;;;;5007783;28;20236;-57
2022/01/09 01:21:10;;;;;;;0.50;0.40;;;5.70;99.90;;;;;;5002101;28;20476;-58
2022/01/09 01:23:35;;;;;;;0.80;0.60;;;6.30;99.90;;;;;;5009710;28;20234;-58
2022/01/09 01:26:02;;;;;;;1.57;0.53;;;6.30;99.90;;;;;;5011838;28;20459;-58
2022/01/09 01:28:29;;;;;;;1.95;0.50;;;6.50;99.90;;;;;;5016684;28;20265;-57
2022/01/09 01:30:55;;;;;;;0.50;0.50;;;6.40;99.90;;;;;;5001958;28;20253;-58
2022/01/09 01:33:21;;;;;;;0.60;0.52;;;6.10;99.90;;;;;;5007566;28;20191;-58
2022/01/09 01:35:46;;;;;;;0.60;0.50;;;6.40;99.90;;;;;;5011099;28;20179;-58
2022/01/09 01:38:12;;;;;;;0.50;0.40;;;6.10;99.90;;;;;;5009757;28;20187;-58
2022/01/09 01:40:38;;;;;;;0.50;0.40;;;5.80;99.90;;;;;;5003957;28;20209;-58
2022/01/09 01:43:03;;;;;;;0.60;0.43;;;6.20;99.90;;;;;;5005360;28;20222;-57
2022/01/09 01:45:29;;;;;;;0.50;0.40;;;6.30;99.90;;;;;;4999525;28;20187;-58
2022/01/09 01:47:55;;;;;;;0.50;0.40;;;6.40;99.90;;;;;;5005488;28;20200;-58
2022/01/09 01:50:20;;;;;;;0.60;0.50;;;6.50;99.90;;;;;;5001855;28;20225;-57
2022/01/09 01:52:51;;;;;;;0.50;0.40;;;5.90;99.90;;;;;;5004741;28;20648;-58
2022/01/09 01:55:17;;;;;;;0.60;0.50;;;6.40;99.90;;;;;;5007703;28;20187;-58
2022/01/09 01:57:44;;;;;;;0.60;0.50;;;6.40;99.90;;;;;;5011450;28;20183;-58
2022/01/09 02:00:14;;;;;;;0.70;0.50;;;6.40;99.90;;;;;;5007343;28;20662;-58
2022/01/09 02:02:39;;;;;;;0.50;0.40;;;6.30;99.90;;;;;;5012513;28;20193;-58
2022/01/09 02:05:06;;;;;;;0.60;0.40;;;6.40;99.90;;;;;;5007930;28;20182;-57
2022/01/09 02:07:32;;;;;;;0.60;0.50;;;6.30;99.90;;;;;;5008156;28;20191;-57
2022/01/09 02:09:58;;;;;;;0.80;0.50;;;6.40;99.90;;;;;;5006896;28;20241;-58
2022/01/09 02:12:24;;;;;;;0.50;0.40;;;6.60;99.90;;;;;;5013293;28;20242;-58
2022/01/09 02:14:50;;;;;;;0.70;0.43;;;6.40;99.90;;;;;;5008844;28;20175;-58
2022/01/09 02:17:17;;;;;;;0.50;0.40;;;6.60;99.90;;;;;;5009042;28;20441;-58
2022/01/09 02:19:56;;;;;;;0.60;0.50;;;6.40;99.90;;;;;;5009373;28;20686;-57
2022/01/09 02:22:24;;;;;;;0.60;0.50;;;6.60;99.90;;;;;;5008542;28;20181;-58
2022/01/09 02:24:51;;;;;;;0.60;0.40;;;6.50;99.90;;;;;;5004875;28;20188;-58
2022/01/09 02:27:17;;;;;;;0.50;0.40;;;6.50;99.90;;;;;;5009845;28;20193;-58
2022/01/09 02:29:46;;;;;;;0.60;0.40;;;6.60;99.90;;;;;;5005337;28;20221;-58
2022/01/09 02:32:12;;;;;;;0.52;0.40;;;6.30;99.90;;;;;;5010964;28;20798;-58
2022/01/09 02:34:38;;;;;;;0.50;0.40;;;6.40;99.90;;;;;;5010211;28;20185;-58
2022/01/09 02:37:04;;;;;;;0.70;0.50;;;6.40;99.90;;;;;;5012264;28;20193;-58
2022/01/09 02:39:29;;;;;;;0.50;0.40;;;6.20;99.90;;;;;;5008798;28;20203;-58
2022/01/09 02:41:55;;;;;;;0.50;0.40;;;6.50;99.90;;;;;;5012162;28;20490;-57
2022/01/09 02:44:20;;;;;;;0.60;0.50;;;6.50;99.90;;;;;;5005801;28;20190;-57
2022/01/09 02:47:04;;;;;;;0.60;0.50;;;6.30;99.90;;;;;;5003387;28;20189;-57
2022/01/09 02:49:31;;;;;;;0.70;0.40;;;5.90;99.90;;;;;;5002895;28;20210;-58
2022/01/09 02:51:58;;;;;;;0.50;0.40;;;6.30;99.90;;;;;;5005659;28;20201;-57
2022/01/09 02:57:08;;;;;;;0.50;0.40;;;6.20;99.90;;;;;;5001579;28;20198;-58
2022/01/09 02:59:34;;;;;;;0.60;0.40;;;6.20;99.90;;;;;;5002617;28;20603;-58
2022/01/09 03:02:00;;;;;;;0.60;0.50;;;6.30;99.90;;;;;;5010855;28;20182;-57
2022/01/09 03:04:25;;;;;;;0.70;0.47;;;6.30;99.90;;;;;;5001617;28;20256;-57
2022/01/09 03:06:51;;;;;;;0.60;0.40;;;6.10;99.90;;;;;;5008257;28;20446;-58
2022/01/09 03:09:18;;;;;;;0.60;0.40;;;6.10;99.90;;;;;;5003222;28;20285;-57
2022/01/09 03:11:45;;;;;;;0.57;0.47;;;6.10;99.90;;;;;;5002799;28;20243;-57
2022/01/09 03:14:11;;;;;;;0.70;0.40;;;6.00;99.90;;;;;;5002085;28;20671;-57
2022/01/09 03:16:36;;;;;;;0.60;0.40;;;6.30;99.90;;;;;;4996898;28;20214;-58
2022/01/09 03:19:02;;;;;;;0.50;0.40;;;6.30;99.90;;;;;;5009784;28;20211;-57
2022/01/09 03:21:28;;;;;;;1.13;0.50;;;6.40;99.90;;;;;;5008580;28;20299;-58
2022/01/09 03:23:53;;;;;;;0.80;0.50;;;6.30;99.90;;;;;;5009560;28;20438;-58
2022/01/09 03:26:19;;;;;;;0.60;0.50;;;6.20;99.90;;;;;;5000231;28;20595;-58
2022/01/09 03:28:45;;;;;;;1.23;0.50;;;5.90;99.90;;;;;;5007776;28;20276;-58
2022/01/09 03:31:11;;;;;;;0.60;0.40;;;6.10;99.90;;;;;;5004557;28;20297;-57
2022/01/09 03:33:36;;;;;;;1.33;1.27;;;6.20;99.90;;;;;;5002646;28;20442;-58
2022/01/09 03:36:02;;;;;;;0.60;0.40;;;6.30;99.90;;;;;;5013646;28;20189;-58
2022/01/09 03:38:27;;;;;;;0.67;0.40;;;6.20;99.90;;;;;;5015835;28;20186;-57
2022/01/09 03:40:53;;;;;;;0.50;0.40;;;6.30;99.90;;;;;;5010226;28;20218;-57
2022/01/09 03:43:19;;;;;;;0.70;0.50;;;6.50;99.90;;;;;;5003840;28;20194;-58
2022/01/09 03:45:44;;;;;;;0.50;0.40;;;5.80;99.90;;;;;;4998818;28;20196;-57
2022/01/09 03:48:10;;;;;;;0.57;0.47;;;6.50;99.90;;;;;;5009092;28;20231;-58
2022/01/09 03:50:36;;;;;;;0.50;0.40;;;6.50;99.90;;;;;;5003102;28;20245;-58
2022/01/09 03:53:04;;;;;;;0.80;0.60;;;6.40;99.90;;;;;;5010049;28;20186;-58
2022/01/09 03:55:29;;;;;;;0.50;0.45;;;6.70;99.90;;;;;;5012738;28;20446;-58
2022/01/09 03:57:55;;;;;;;0.70;0.50;;;6.00;99.90;;;;;;5008256;28;20182;-57
2022/01/09 04:00:23;;;;;;;0.50;0.40;;;6.60;99.90;;;;;;4996021;28;20242;-58
2022/01/09 04:02:50;;;;;;;0.60;0.43;;;6.60;99.90;;;;;;5009903;28;20189;-58
2022/01/09 04:05:16;;;;;;;0.60;0.50;;;6.60;99.90;;;;;;5002491;28;20193;-57
2022/01/09 04:07:42;;;;;;;0.70;0.50;;;6.40;99.90;;;;;;5005466;28;20562;-58
2022/01/09 04:10:08;;;;;;;0.80;0.50;;;6.60;99.90;;;;;;5007654;28;20210;-58
2022/01/09 04:12:37;;;;;;;0.90;0.52;;;6.30;99.90;;;;;;5008990;28;20214;-58
2022/01/09 04:15:06;;;;;;;0.60;0.50;;;6.60;99.90;;;;;;5002685;28;20194;-57
2022/01/09 04:20:06;;;;;;;0.60;0.40;;;6.00;99.90;;;;;;4997466;28;20296;-58
2022/01/09 04:22:32;;;;;;;0.63;0.47;;;6.70;99.90;;;;;;5008349;28;20200;-58
2022/01/09 04:24:57;;;;;;;0.80;0.50;;;6.00;99.90;;;;;;5006181;28;20202;-58
2022/01/09 04:27:23;;;;;;;0.57;0.43;;;6.10;99.90;;;;;;5001967;28;20191;-58
2022/01/09 04:29:48;;;;;;;0.80;0.60;;;6.10;99.90;;;;;;5003251;28;20214;-58
2022/01/09 04:32:14;;;;;;;0.90;0.50;;;6.70;99.90;;;;;;5002510;28;20183;-58
2022/01/09 04:34:40;;;;;;;0.90;0.60;;;6.60;99.90;;;;;;5002646;28;20183;-58
2022/01/09 04:37:06;;;;;;;0.60;0.50;;;6.10;99.90;;;;;;5008491;28;20460;-58
2022/01/09 04:39:32;;;;;;;1.07;0.73;;;6.60;99.90;;;;;;5013682;28;20211;-58
2022/01/09 04:41:57;;;;;;;0.50;0.40;;;6.70;99.90;;;;;;5003791;28;20217;-58
2022/01/09 04:44:24;;;;;;;0.50;0.40;;;6.60;99.90;;;;;;5001732;28;20195;-58
2022/01/09 04:46:58;;;;;;;0.70;0.50;;;6.40;99.90;;;;;;4998126;28;20187;-58
2022/01/09 04:49:25;;;;;;;0.60;0.40;;;6.50;99.90;;;;;;5001707;28;20202;-57
2022/01/09 04:51:50;;;;;;;2.33;0.50;;;6.70;99.90;;;;;;5013646;28;20201;-58
2022/01/09 04:54:16;;;;;;;0.50;0.50;;;6.50;99.90;;;;;;4998359;28;20181;-57
2022/01/09 04:56:42;;;;;;;0.57;0.40;;;6.50;99.90;;;;;;5009257;28;20429;-58
2022/01/09 04:59:07;;;;;;;0.60;0.40;;;6.10;99.90;;;;;;5012084;28;20288;-58
2022/01/09 05:01:33;;;;;;;0.60;0.40;;;6.20;99.90;;;;;;4995731;28;20652;-58
2022/01/09 05:03:59;;;;;;;0.60;0.40;;;6.20;99.90;;;;;;5006430;28;20262;-58
2022/01/09 05:06:24;;;;;;;0.50;0.40;;;6.20;99.90;;;;;;5010535;28;20189;-57
2022/01/09 05:08:50;;;;;;;1.23;0.50;;;5.90;99.90;;;;;;5004825;28;20197;-58
2022/01/09 05:11:16;;;;;;;0.90;0.50;;;5.90;99.90;;;;;;5003316;28;20216;-57
2022/01/09 05:13:41;;;;;;;0.50;0.40;;;5.90;99.90;;;;;;5003947;28;20450;-57
2022/01/09 05:16:07;;;;;;;0.60;0.50;;;6.10;99.90;;;;;;5006593;28;20571;-57
2022/01/09 05:18:41;;;;;;;0.60;0.40;;;5.70;99.90;;;;;;5011724;28;20446;-58
2022/01/09 05:21:07;;;;;;;0.60;0.50;;;5.20;99.90;;;;;;5012275;28;20580;-58
2022/01/09 05:23:33;;;;;;;0.80;0.50;;;5.80;99.90;;;;;;5003432;28;20212;-57
2022/01/09 05:25:59;;;;;;;1.20;0.50;;;5.70;99.90;;;;;;5011418;28;20584;-57
2022/01/09 05:28:24;;;;;;;0.50;0.40;;;5.80;99.90;;;;;;5012940;28;20204;-58
2022/01/09 05:30:50;;;;;;;0.50;0.40;;;5.70;99.90;;;;;;5003127;28;20766;-57
2022/01/09 05:33:15;;;;;;;0.50;0.40;;;5.30;99.90;;;;;;5017158;28;20688;-57
2022/01/09 05:35:41;;;;;;;0.53;0.40;;;5.40;99.90;;;;;;5018116;28;20180;-58
2022/01/09 05:38:06;;;;;;;0.60;0.50;;;5.50;99.90;;;;;;5014690;28;20189;-57
2022/01/09 05:40:32;;;;;;;0.70;0.40;;;4.90;99.90;;;;;;5005978;28;20212;-58
2022/01/09 05:42:58;;;;;;;1.00;0.50;;;5.60;99.90;;;;;;5001295;28;20201;-57
2022/01/09 05:45:23;;;;;;;0.50;0.40;;;5.40;99.90;;;;;;5010597;28;20183;-57
2022/01/09 05:47:49;;;;;;;1.77;0.60;;;5.50;99.90;;;;;;5010526;28;20206;-57
2022/01/09 05:50:15;;;;;;;0.50;0.40;;;5.20;99.90;;;;;;5009243;28;20218;-58
2022/01/09 05:52:40;;;;;;;0.50;0.40;;;5.20;99.90;;;;;;5012190;28;20240;-57
2022/01/09 05:55:07;;;;;;;0.60;0.50;;;5.10;99.90;;;;;;5005897;28;20443;-58
2022/01/09 05:57:33;;;;;;;0.60;0.40;;;5.30;99.90;;;;;;5011304;28;20614;-57
2022/01/09 05:59:59;;;;;;;0.50;0.40;;;5.10;99.90;;;;;;5006866;28;20752;-57
2022/01/09 06:02:24;;;;;;;0.65;0.47;;;5.20;99.90;;;;;;4998696;28;20201;-57
2022/01/09 06:04:50;;;;;;;0.50;0.50;;;5.10;99.90;;;;;;5005393;28;20230;-58
2022/01/09 06:07:16;;;;;;;0.93;0.50;;;5.10;99.90;;;;;;5011199;28;20649;-58
2022/01/09 06:09:41;;;;;;;0.57;0.50;;;5.20;99.90;;;;;;5009741;28;20206;-58
2022/01/09 06:12:07;;;;;;;1.10;0.53;;;5.10;99.90;;;;;;5005549;28;20200;-58
2022/01/09 06:14:33;;;;;;;0.60;0.50;;;5.40;99.90;;;;;;5004353;28;20224;-57
2022/01/09 06:16:59;;;;;;;0.70;0.50;;;5.10;99.90;;;;;;5005052;28;20223;-58
2022/01/09 06:19:24;;;;;;;1.00;0.40;;;5.00;99.90;;;;;;5008428;28;20213;-58
2022/01/09 06:21:51;;;;;;;1.73;1.00;;;5.20;99.90;;;;;;5007641;28;20306;-58
2022/01/09 06:24:16;;;;;;;0.65;0.50;;;5.10;99.90;;;;;;5005810;28;20191;-58
2022/01/09 06:26:42;;;;;;;2.13;0.50;;;5.10;99.90;;;;;;5009342;28;20216;-58
2022/01/09 06:29:08;;;;;;;0.80;0.50;;;4.50;99.90;;;;;;5009499;28;20214;-59
2022/01/09 06:31:33;;;;;;;1.00;0.50;;;5.20;99.90;;;;;;5003935;28;20256;-58
2022/01/09 06:33:59;;;;;;;0.73;0.60;;;5.20;99.90;;;;;;5007995;28;20224;-57
2022/01/09 06:36:24;;;;;;;0.90;0.57;;;5.20;99.90;;;;;;5006779;28;20235;-57
2022/01/09 06:38:50;;;;;;;1.20;0.50;;;5.10;99.90;;;;;;5005780;28;20697;-58
2022/01/09 06:41:16;;;;;;;0.70;0.70;;;5.00;99.90;;;;;;5015624;28;20238;-57
2022/01/09 06:43:44;;;;;;;0.60;0.50;;;4.70;99.90;;;;;;5009362;28;20188;-58
2022/01/09 06:46:09;;;;;;;0.90;0.65;;;5.00;99.90;;;;;;4997274;28;20187;-57
2022/01/09 06:48:35;;;;;;;1.10;0.50;;;5.10;99.90;;;;;;5009209;28;20245;-58
2022/01/09 06:51:01;;;;;;;0.67;0.50;;;5.30;99.90;;;;;;5011180;28;20476;-57
2022/01/09 06:53:26;;;;;;;0.97;0.60;;;5.20;99.90;;;;;;5010909;28;20184;-57
2022/01/09 06:55:52;;;;;;;0.60;0.40;;;5.20;99.90;;;;;;5003073;28;20181;-57
2022/01/09 06:58:21;;;;;;;0.90;0.57;;;5.30;99.90;;;;;;5007677;28;20260;-57
2022/01/09 07:00:47;;;;;;;0.70;0.50;;;5.10;99.90;;;;;;5000910;28;20246;-58
2022/01/09 07:03:13;;;;;;;0.60;0.50;;;5.10;99.90;;;;;;5009862;28;20260;-58
2022/01/09 07:05:39;;;;;;;0.70;0.43;;;4.60;99.90;;;;;;5007081;28;20295;-58
2022/01/09 07:08:05;;;;;;;0.70;0.60;;;4.40;99.90;;;;;;5006443;28;20264;-58
2022/01/09 07:10:31;;;;;;;0.60;0.47;;;5.10;99.90;;;;;;4996965;28;20245;-57
2022/01/09 07:12:56;;;;;;;1.92;0.52;;;5.00;99.90;;;;;;5009797;28;20184;-58
2022/01/09 07:15:22;;;;;;;3.07;0.60;;;4.90;99.90;;;;;;5005183;28;20183;-58
2022/01/09 07:17:48;;;;;;;2.10;0.60;;;5.00;99.90;;;;;;5011994;28;20608;-58
2022/01/09 07:20:14;;;;;;;0.63;0.57;;;5.00;99.90;;;;;;5008805;28;20627;-58
2022/01/09 07:22:39;;;;;;;0.80;0.60;;;4.80;99.90;;;;;;5010014;28;20713;-58
2022/01/09 07:25:05;;;;;;;1.80;0.60;;;5.10;99.90;;;;;;5002660;28;20181;-58
2022/01/09 07:27:35;;;;;;;0.82;0.50;;;5.20;99.90;;;;;;5006947;28;20962;-57
2022/01/09 07:30:01;;;;;;;0.70;0.60;;;4.20;99.90;;;;;;4998294;28;20219;-58
2022/01/09 07:32:28;;;;;;;0.60;0.60;;;5.00;99.90;;;;;;5011620;28;20692;-58
2022/01/09 07:34:57;;;;;;;1.30;0.80;;;4.20;99.90;;;;;;5010933;28;20593;-57
2022/01/09 07:37:23;;;;;;;1.48;0.80;;;4.80;99.90;;;;;;5006603;28;20209;-58
2022/01/09 07:39:50;;;;;;;2.13;0.80;;;5.10;99.90;;;;;;5005378;28;20278;-58
2022/01/09 07:42:15;;;;;;;4.13;1.05;;;5.00;99.90;;;;;;5005967;28;20966;-58
2022/01/09 07:44:41;;;;;;;2.47;1.07;;;5.10;99.90;;;;;;4997515;28;20660;-58
2022/01/09 07:47:07;;;;;;;2.20;0.83;;;4.90;99.90;;;;;;4996718;28;20583;-58
2022/01/09 07:49:32;;;;;;;5.23;1.10;;;5.00;99.90;;;;;;5005952;28;20574;-58
2022/01/09 07:51:58;;;;;;;2.00;1.30;;;5.30;99.90;;;;;;5006583;28;20471;-58
2022/01/09 07:54:24;;;;;;;1.80;1.00;;;5.20;99.90;;;;;;5017592;28;20219;-57
2022/01/09 07:56:49;;;;;;;3.07;1.00;;;4.50;99.90;;;;;;5014610;28;20190;-58
2022/01/09 07:59:16;;;;;;;1.37;1.13;;;4.60;99.90;;;;;;5007683;28;20210;-58
2022/01/09 08:01:41;;;;;;;1.98;1.00;;;5.40;99.90;;;;;;4999799;28;20199;-57
2022/01/09 08:04:07;;;;;;;1.93;0.97;;;5.30;99.90;;;;;;5007785;28;20182;-58
2022/01/09 08:06:32;;;;;;;1.57;1.17;;;4.80;99.90;;;;;;5012755;28;20194;-57
2022/01/09 08:08:58;;;;;;;2.13;1.20;;;5.20;99.90;;;;;;5001546;28;20659;-58
2022/01/09 08:11:24;;;;;;;3.20;1.57;;;4.80;99.90;;;;;;5007411;28;20216;-58
2022/01/09 08:13:50;;;;;;;5.13;1.40;;;4.80;99.90;;;;;;5006429;28;20188;-57
2022/01/09 08:16:16;;;;;;;1.73;1.13;;;4.80;99.90;;;;;;5000394;28;20184;-58
2022/01/09 08:18:41;;;;;;;7.03;1.43;;;5.20;99.90;;;;;;5009385;28;20226;-58
2022/01/09 08:21:07;;;;;;;2.70;1.00;;;4.90;99.90;;;;;;4996555;28;20673;-58
2022/01/09 08:23:33;;;;;;;6.10;1.27;;;5.30;99.90;;;;;;5007037;28;20199;-57
2022/01/09 08:25:58;;;;;;;4.00;1.40;;;4.70;99.90;;;;;;5006205;28;20197;-58
2022/01/09 08:28:24;;;;;;;2.97;1.40;;;4.80;99.90;;;;;;5003770;28;20180;-58
2022/01/09 08:30:50;;;;;;;2.27;1.50;;;5.60;99.90;;;;;;5007180;28;20248;-57
2022/01/09 08:33:15;;;;;;;2.70;1.27;;;5.60;99.90;;;;;;5009553;28;20184;-57
2022/01/09 08:35:41;;;;;;;2.40;1.23;;;5.50;99.90;;;;;;5009347;28;20597;-57
2022/01/09 08:38:06;;;;;;;2.53;1.10;;;5.50;99.90;;;;;;4998225;28;20193;-58
2022/01/09 08:40:32;;;;;;;5.20;1.60;;;5.60;99.90;;;;;;5011572;28;20550;-57
2022/01/09 08:42:58;;;;;;;2.83;1.30;;;5.60;99.90;;;;;;5013840;28;20186;-57
2022/01/09 08:45:24;;;;;;;1.27;1.17;;;5.60;99.90;;;;;;4998871;28;20678;-58
2022/01/09 08:47:50;;;;;;;1.80;1.20;;;5.10;99.90;;;;;;5011508;28;20187;-58
2022/01/09 08:50:18;;;;;;;2.03;1.58;;;5.80;99.90;;;;;;5013664;28;20296;-58
2022/01/09 08:52:44;;;;;;;5.45;1.50;;;5.80;99.90;;;;;;5015015;28;20204;-58
2022/01/09 08:55:10;;;;;;;3.60;1.67;;;5.80;99.90;;;;;;4999983;28;20194;-58
2022/01/09 08:57:36;;;;;;;2.65;1.30;;;5.90;99.90;;;;;;5005426;28;20277;-57
2022/01/09 09:00:04;;;;;;;3.83;1.10;;;5.70;99.90;;;;;;5007932;28;20290;-58
2022/01/09 09:02:30;;;;;;;4.60;1.27;;;6.10;99.90;;;;;;5010210;28;20583;-57
2022/01/09 09:04:55;;;;;;;3.97;1.50;;;6.00;99.90;;;;;;5010319;28;20188;-58
2022/01/09 09:07:24;;;;;;;2.13;1.23;;;6.10;99.90;;;;;;5008846;28;20195;-58
2022/01/09 09:09:51;;;;;;;11.02;2.00;;;6.40;99.90;;;;;;5007362;28;20265;-58
2022/01/09 09:12:17;;;;;;;2.22;1.30;;;6.50;99.90;;;;;;5007912;28;20604;-58
2022/01/09 09:14:43;;;;;;;3.70;1.42;;;6.30;99.90;;;;;;5000142;28;20358;-57
2022/01/09 09:17:08;;;;;;;3.37;1.37;;;6.30;99.90;;;;;;5004842;28;20265;-57
2022/01/09 09:19:35;;;;;;;2.10;0.90;;;5.70;99.90;;;;;;5010278;28;20535;-58
2022/01/09 09:22:00;;;;;;;4.60;1.85;;;6.30;99.90;;;;;;5010508;28;20917;-58
2022/01/09 09:24:26;;;;;;;6.47;1.10;;;5.90;99.90;;;;;;5006150;28;20241;-58
2022/01/09 09:26:52;;;;;;;2.73;1.40;;;6.30;99.90;;;;;;5012772;28;20187;-57
2022/01/09 09:29:18;;;;;;;2.70;1.30;;;6.40;99.90;;;;;;5003774;28;20214;-58
2022/01/09 09:31:44;;;;;;;3.05;1.30;;;6.30;99.90;;;;;;5008828;28;20213;-58
2022/01/09 09:34:09;;;;;;;4.93;1.20;;;6.50;99.90;;;;;;5008223;28;20175;-56
2022/01/09 09:36:35;;;;;;;6.17;3.10;;;6.90;99.90;;;;;;5009005;28;20278;-56
2022/01/09 09:39:03;;;;;;;4.47;1.80;;;6.90;99.90;;;;;;5001688;28;20238;-56
2022/01/09 09:41:29;;;;;;;2.38;1.15;;;7.00;99.90;;;;;;5009137;28;20546;-56
2022/01/09 09:43:55;;;;;;;3.80;1.40;;;7.20;99.90;;;;;;5010014;28;20190;-57
2022/01/09 09:46:22;;;;;;;2.53;1.43;;;7.30;99.90;;;;;;5006355;28;20223;-55
2022/01/09 09:48:48;;;;;;;4.10;1.63;;;6.60;99.90;;;;;;5007246;28;20183;-59
2022/01/09 09:51:13;;;;;;;3.65;2.15;;;6.90;99.90;;;;;;5010633;28;20288;-56
2022/01/09 09:53:39;;;;;;;2.57;1.70;;;7.00;99.90;;;;;;5001225;28;20226;-56
2022/01/09 09:56:05;;;;;;;4.53;1.63;;;6.60;99.90;;;;;;5010242;28;20188;-55
2022/01/09 09:58:31;;;;;;;2.47;1.20;;;6.70;99.90;;;;;;5008606;28;20270;-56
2022/01/09 10:00:57;;;;;;;4.40;2.83;;;6.70;99.90;;;;;;4999576;28;20454;-57
2022/01/09 10:03:31;;;;;;;3.17;1.83;;;6.90;99.90;;;;;;5005707;28;20669;-57
2022/01/09 10:05:57;;;;;;;4.15;2.03;;;7.00;99.90;;;;;;5010618;28;20187;-57
2022/01/09 10:08:37;;;;;;;5.90;1.33;;;7.10;99.90;;;;;;4998332;28;20192;-57
2022/01/09 10:11:17;;;;;;;3.65;1.60;;;6.90;99.90;;;;;;5004920;28;20774;-57
2022/01/09 10:13:43;;;;;;;6.32;3.35;;;6.80;99.90;;;;;;5008225;28;20664;-57
2022/01/09 10:16:10;;;;;;;4.28;1.40;;;6.80;99.90;;;;;;5005438;28;20325;-56
2022/01/09 10:18:40;;;;;;;3.30;1.45;;;7.20;99.90;;;;;;5013433;28;20654;-56
2022/01/09 10:21:07;;;;;;;5.05;1.63;;;7.40;99.90;;;;;;5009807;28;20224;-55
2022/01/09 10:23:33;;;;;;;4.53;1.58;;;7.40;99.90;;;;;;4999147;28;20191;-57
2022/01/09 10:26:12;;;;;;;2.50;1.20;;;7.10;99.90;;;;;;5004794;28;20197;-56
2022/01/09 10:28:38;;;;;;;3.33;1.27;;;7.30;99.90;;;;;;5011662;28;20194;-56
2022/01/09 10:31:18;;;;;;;2.15;1.45;;;7.20;99.90;;;;;;5003521;28;20211;-56
2022/01/09 10:33:59;;;;;;;4.82;1.60;;;7.20;99.90;;;;;;5004770;28;20206;-56
2022/01/09 10:36:54;;;;;;;2.80;1.23;;;7.20;99.90;;;;;;5004114;28;20186;-55
2022/01/09 10:39:30;;;;;;;3.13;1.40;;;7.20;99.90;;;;;;4995165;28;20214;-56
2022/01/09 10:42:03;;;;;;;2.97;1.25;;;7.20;99.90;;;;;;5005191;28;20615;-57
2022/01/09 10:44:35;;;;;;;5.70;1.80;;;7.30;99.90;;;;;;5002210;28;20357;-57
2022/01/09 10:47:06;;;;;;;4.70;1.77;;;7.40;99.90;;;;;;5008807;28;20187;-57
2022/01/09 10:49:39;;;;;;;3.88;1.38;;;7.40;99.90;;;;;;5012599;28;20214;-55
2022/01/09 10:52:22;;;;;;;2.60;1.20;;;7.50;99.90;;;;;;5013784;28;20272;-56
2022/01/09 10:54:49;;;;;;;2.50;1.92;;;7.40;99.90;;;;;;5010322;28;20245;-55
2022/01/09 10:57:20;;;;;;;2.70;1.55;;;7.40;99.90;;;;;;5014812;28;20245;-54
2022/01/09 10:59:47;;;;;;;5.70;2.30;;;7.40;99.90;;;;;;5010092;28;20676;-55
2022/01/09 11:02:13;;;;;;;2.53;1.70;;;7.30;99.90;;;;;;4998005;28;20218;-57
2022/01/09 11:04:44;;;;;;;2.97;1.60;;;7.00;99.90;;;;;;5005709;28;20210;-57
2022/01/09 11:07:10;;;;;;;3.28;1.40;;;6.80;99.90;;;;;;5002296;28;20941;-56
2022/01/09 11:09:42;;;;;;;1.70;1.25;;;7.00;99.90;;;;;;5009931;28;20211;-57
2022/01/09 11:12:09;;;;;;;5.07;1.50;;;7.00;99.90;;;;;;5010886;28;20190;-57
2022/01/09 11:14:40;;;;;;;4.35;1.20;;;7.10;99.90;;;;;;5006850;28;20274;-57
2022/01/09 11:17:08;;;;;;;1.85;1.30;;;7.50;99.90;;;;;;5011055;28;20202;-58
2022/01/09 11:19:34;;;;;;;2.50;1.20;;;8.00;99.90;;;;;;5008103;28;20298;-56
2022/01/09 11:22:06;;;;;;;2.78;1.70;;;8.40;99.90;;;;;;5011490;28;20198;-57
2022/01/09 11:25:09;;;;;;;2.78;1.40;;;8.60;99.90;;;;;;5007134;28;20194;-55
2022/01/09 11:27:54;;;;;;;4.70;1.42;;;8.00;99.90;;;;;;5005737;28;20567;-56
2022/01/09 11:30:20;;;;;;;1.52;1.05;;;7.60;99.90;;;;;;5006366;28;20222;-55
2022/01/09 11:33:07;;;;;;;1.52;1.23;;;7.90;99.90;;;;;;5013333;28;20186;-57
2022/01/09 11:35:38;;;;;;;3.80;1.80;;;7.50;99.90;;;;;;5007490;28;20458;-57
2022/01/09 11:38:19;;;;;;;4.50;1.65;;;7.70;99.90;;;;;;5000189;28;20698;-55
2022/01/09 11:40:45;;;;;;;2.10;1.23;;;7.50;99.90;;;;;;5010880;28;20240;-55
2022/01/09 11:43:14;;;;;;;3.00;1.30;;;7.60;99.90;;;;;;5005140;28;20187;-55
2022/01/09 11:45:58;;;;;;;4.68;2.00;;;7.80;99.90;;;;;;5005294;28;20190;-56
2022/01/09 11:48:58;;;;;;;1.52;1.20;;;8.10;99.90;;;;;;5008259;28;20677;-57
2022/01/09 11:51:28;;;;;;;4.03;1.55;;;7.90;99.90;;;;;;5006651;28;20215;-55
2022/01/09 11:54:04;;;;;;;2.65;1.92;;;8.20;99.90;;;;;;5003111;28;20224;-56
2022/01/09 11:56:43;;;;;;;3.15;1.50;;;8.10;99.90;;;;;;5003862;28;20274;-56
2022/01/09 11:59:47;;;;;;;2.63;1.20;;;8.10;99.90;;;;;;5004204;28;20289;-55
2022/01/09 12:02:12;;;;;;;4.45;1.40;;;8.00;99.90;;;;;;5000439;28;20205;-55
2022/01/09 12:04:41;;;;;;;2.00;1.43;;;7.90;99.90;;;;;;5004629;28;20255;-56
2022/01/09 12:07:12;;;;;;;2.03;1.30;;;7.60;99.90;;;;;;5006305;28;20176;-54
2022/01/09 12:09:47;;;;;;;2.15;1.10;;;7.70;99.90;;;;;;5006593;28;20203;-57
2022/01/09 12:12:33;;;;;;;1.80;1.40;;;7.70;99.90;;;;;;5003204;28;20217;-55
2022/01/09 12:15:03;;;;;;;1.80;1.13;;;7.70;99.90;;;;;;5000336;28;20190;-54
2022/01/09 12:17:45;;;;;;;3.35;1.50;;;7.80;99.90;;;;;;5000718;28;20233;-55
2022/01/09 12:20:14;;;;;;;2.65;1.30;;;8.00;99.90;;;;;;5004314;28;20224;-54
2022/01/09 12:22:40;;;;;;;4.20;1.52;;;8.00;99.90;;;;;;5008987;28;20182;-55
2022/01/09 12:25:07;;;;;;;2.38;1.10;;;8.00;99.90;;;;;;5012080;28;20281;-54
2022/01/09 12:27:35;;;;;;;2.75;1.42;;;7.70;99.90;;;;;;5005900;28;20218;-54
2022/01/09 12:30:09;;;;;;;2.70;1.10;;;7.60;99.90;;;;;;5004391;28;20195;-54
2022/01/09 12:32:43;;;;;;;1.85;1.33;;;7.60;99.90;;;;;;5008720;28;20221;-55
2022/01/09 12:35:18;;;;;;;2.78;1.40;;;7.80;99.90;;;;;;5007635;28;20182;-54
2022/01/09 12:37:49;;;;;;;3.70;1.40;;;7.90;99.90;;;;;;5007112;28;20183;-55
2022/01/09 12:40:18;;;;;;;2.70;1.20;;;7.90;99.90;;;;;;4999974;28;20211;-54
2022/01/09 12:42:50;;;;;;;2.13;1.25;;;8.10;99.90;;;;;;5008212;28;20227;-55
2022/01/09 12:45:42;;;;;;;3.42;1.30;;;7.60;99.90;;;;;;4998651;28;20187;-54
2022/01/09 12:48:18;;;;;;;5.80;1.40;;;7.70;99.90;;;;;;5000455;28;20199;-55
2022/01/09 12:50:44;;;;;;;4.78;2.00;;;7.80;99.90;;;;;;5009660;28;20217;-55
2022/01/09 12:53:22;;;;;;;3.07;1.10;;;7.50;99.90;;;;;;5008080;28;20183;-55
2022/01/09 12:56:07;;;;;;;4.32;1.15;;;7.50;99.90;;;;;;5004626;28;20417;-55
2022/01/09 12:58:44;;;;;;;2.88;1.40;;;7.90;99.90;;;;;;5008533;28;20198;-55
2022/01/09 13:01:13;;;;;;;4.45;1.45;;;7.70;99.90;;;;;;5012286;28;20705;-55
2022/01/09 13:03:41;;;;;;;1.80;1.20;;;7.50;99.90;;;;;;5011705;28;20198;-54
2022/01/09 13:06:12;;;;;;;4.63;1.25;;;7.60;99.90;;;;;;5012808;28;20213;-54
2022/01/09 13:08:51;;;;;;;2.17;1.10;;;7.60;99.90;;;;;;5010092;28;20233;-54